• Join FlightAware (Why Join?)
  • Login
  • US Flag 
12:04AM EST


 

Airport Tracker/Info


-or-


 

Live Flight TrackerFlight Track Log ✈ FIN666 ✈ 27-Jun-2014 ✈ EKCH / CPH - EFHK / HEL

Flight Track Log - Related Links

Times and Time Zones

All times are in EDT time to prevent confusion due to time zone crossing. See the FIN666 flight status page for this flight to view local times or setup timezone preferences in your user account.

Time Position Orientation Groundspeed Altitude Reporting Facility
EDT Latitude Longitude Course Direction KTS MPH feet Rate Location/Type
07:32AM 55.9003 13.2410 49° Northeast  Level Estimated
07:33AM 55.9705 13.3886 50° Northeast  Level Estimated
07:34AM 56.0434 13.5431 50° Northeast  Level Estimated
07:35AM 56.1161 13.6980 50° Northeast  Level Estimated
07:36AM 56.1887 13.8536 50° Northeast  Level Estimated
07:37AM 56.2611 14.0098 50° Northeast  Level Estimated
07:38AM 56.3332 14.1665 50° Northeast  Level Estimated
07:39AM 56.4052 14.3239 50° Northeast  Level Estimated
07:40AM 56.4769 14.4818 51° Northeast  Level Estimated
07:41AM 56.5485 14.6404 51° Northeast  Level Estimated
07:42AM 56.6198 14.7995 51° Northeast  Level Estimated
07:43AM 56.6910 14.9593 51° Northeast  Level Estimated
07:44AM 56.7619 15.1196 51° Northeast  Level Estimated
07:45AM 56.8327 15.2806 51° Northeast  Level Estimated
07:46AM 56.9032 15.4421 51° Northeast  Level Estimated
07:47AM 56.9735 15.6043 51° Northeast  Level Estimated
07:48AM 57.0436 15.7671 52° Northeast  Level Estimated
07:49AM 57.1135 15.9305 52° Northeast  Level Estimated
07:50AM 57.1832 16.0945 52° Northeast  Level Estimated
07:51AM 57.2527 16.2591 52° Northeast  Level Estimated
07:52AM 57.3219 16.4244 52° Northeast  Level Estimated
07:53AM 57.3910 16.5903 52° Northeast  Level Estimated
07:54AM 57.4598 16.7568 52° Northeast  Level Estimated
07:55AM 57.5284 16.9239 53° Northeast  Level Estimated
07:56AM 57.5968 17.0917 53° Northeast  Level Estimated
07:57AM 57.6649 17.2601 53° Northeast  Level Estimated
07:58AM 57.7328 17.4291 53° Northeast  Level Estimated
07:59AM 57.8005 17.5987 53° Northeast  Level Estimated
08:00AM 57.8680 17.7690 53° Northeast  Level Estimated
08:01AM 57.9353 17.9400 53° Northeast  Level Estimated
08:02AM 58.0023 18.1115 54° Northeast  Level Estimated
08:03AM 58.0691 18.2838 54° Northeast  Level Estimated
08:04AM 58.1356 18.4566 54° Northeast  Level Estimated
08:05AM 58.2019 18.6301 54° Northeast  Level Estimated
08:06AM 58.2680 18.8043 54° Northeast  Level Estimated
08:07AM 58.3339 18.9791 54° Northeast  Level Estimated
08:08AM 58.3995 19.1546 54° Northeast  Level Estimated
08:09AM 58.4648 19.3307 55° Northeast  Level Estimated
08:10AM 58.5299 19.5074 55° Northeast  Level Estimated
08:11AM 58.5948 19.6849 55° Northeast  Level Estimated
08:12AM 58.6595 19.8629 55° Northeast  Level Estimated
08:13AM 58.7238 20.0417 55° Northeast  Level Estimated
08:14AM 58.7880 20.2211 55° Northeast  Level Estimated
08:15AM 58.8519 20.4011 56° Northeast  Level Estimated
08:16AM 58.9155 20.5819 56° Northeast  Level Estimated
08:17AM 58.9789 20.7633 56° Northeast  Level Estimated
08:18AM 59.0420 20.9453 56° Northeast  Level Estimated
08:19AM 59.1049 21.1280 56° Northeast  Level Estimated
08:20AM 59.1675 21.3114 56° Northeast  Level Estimated
08:21AM 59.2299 21.4955 56° Northeast  Level Estimated
08:22AM 59.2919 21.6803 57° Northeast  Level Estimated
08:23AM 59.3538 21.8657 57° Northeast  Level Estimated
08:24AM 59.4153 22.0518 57° Northeast  Level Estimated
08:25AM 59.4766 22.2385 57° Northeast  Level Estimated
08:26AM 59.5377 22.4260 57° Northeast  Level Estimated
08:27AM 59.5984 22.6141 57° Northeast  Level Estimated
08:28AM 59.6589 22.8029 58° Northeast  Level Estimated
08:29AM 59.7192 22.9924 58° Northeast  Level Estimated
08:30AM 59.7791 23.1826 58° Northeast  Level Estimated
08:31AM 59.8388 23.3734 58° Northeast  Level Estimated
08:32AM 59.8982 23.5650 58° Northeast  Level Estimated
08:33AM 59.9573 23.7572 58° Northeast  Level Estimated
08:34AM 60.0161 23.9501 59° Northeast  Level Estimated
08:35AM 60.0747 24.1437 59° Northeast  Level Estimated
08:36AM 60.1329 24.3379 59° Northeast  Level Estimated
08:37AM 60.1909 24.5329 59° Northeast  Level Estimated
08:38AM 60.2486 24.7286 59° Northeast  Level Estimated
08:39AM 60.3060 24.9249 59° Northeast  Level Estimated
08:40AM 60.3172 24.9633 60° Northeast  Level Estimated
08:41AM 60.3172 24.9633 North  Level Estimated
08:42AM 60.3172 24.9633 North  Level Estimated
08:43AM 60.3172 24.9633 North  Level Estimated
08:44AM 60.3172 24.9633 North  Level Estimated
08:45AM 60.3172 24.9633 North  Level Estimated
08:46AM 60.3172 24.9633 North  Level Estimated
08:47AM 60.3172 24.9633 North  Level Estimated
08:48AM 60.3172 24.9633 North  Level Estimated
08:49AM 60.3172 24.9633 North  Level Estimated
08:50AM 60.3172 24.9633 North  Level Estimated
08:51AM 60.3172 24.9633 North  Level Estimated